DLH18G EDDN-EDDF
Flight info
| Callsign | DLH18G |
|---|---|
| Flight time | 0h 26m |
| Altitude | 22000 |
| Route | SUKAD1C/10 SUKAD DCT PIWAW T159 SPESA SPESA5B |
| Aircraft | A320/M-SDE3FGHIRWY/LB1 |
Departure
| Time | 2026-04-15 15:36 |
|---|---|
| Airport | Nuremberg Airport (EDDN) |
Arrival
| Time | 2026-04-15 16:03 |
|---|---|
| Airport | Frankfurt Main Airport (EDDF) |
| Time | Latitude | Longitude | Altitude | Speed | Heading |
|---|---|---|---|---|---|
| 2026-04-15 15:11 | 49.49506 | 11.07856 | 1029 ft | 0 kts | 188° |
| 2026-04-15 15:25 | 49.49527 | 11.07862 | 1027 ft | 4 kts | 190° |
| 2026-04-15 15:25 | 49.49539 | 11.07865 | 1029 ft | 1 kts | 191° |
| 2026-04-15 15:25 | 49.49523 | 11.07860 | 1027 ft | 4 kts | 191° |
| 2026-04-15 15:25 | 49.49505 | 11.07854 | 1028 ft | 0 kts | 191° |
| 2026-04-15 15:26 | 49.49507 | 11.07855 | 1028 ft | 2 kts | 191° |
| 2026-04-15 15:26 | 49.49523 | 11.07860 | 1027 ft | 2 kts | 191° |
| 2026-04-15 15:26 | 49.49539 | 11.07866 | 1029 ft | 2 kts | 194° |
| 2026-04-15 15:26 | 49.49554 | 11.07874 | 1030 ft | 2 kts | 209° |
| 2026-04-15 15:27 | 49.49567 | 11.07888 | 1030 ft | 2 kts | 250° |
| 2026-04-15 15:27 | 49.49571 | 11.07906 | 1030 ft | 0 kts | 282° |
| 2026-04-15 15:29 | 49.49581 | 11.07826 | 1030 ft | 12 kts | 280° |
| 2026-04-15 15:30 | 49.49634 | 11.07770 | 1031 ft | 10 kts | 4° |
| 2026-04-15 15:30 | 49.49684 | 11.07714 | 1032 ft | 9 kts | 281° |
| 2026-04-15 15:30 | 49.49701 | 11.07572 | 1031 ft | 16 kts | 278° |
| 2026-04-15 15:30 | 49.49719 | 11.07397 | 1027 ft | 12 kts | 278° |
| 2026-04-15 15:31 | 49.49724 | 11.07345 | 1027 ft | 0 kts | 278° |
| 2026-04-15 15:33 | 49.49728 | 11.07302 | 1027 ft | 15 kts | 278° |
| 2026-04-15 15:33 | 49.49750 | 11.07072 | 1023 ft | 24 kts | 278° |
| 2026-04-15 15:33 | 49.49776 | 11.06801 | 1019 ft | 27 kts | 278° |
| 2026-04-15 15:34 | 49.49800 | 11.06551 | 1017 ft | 23 kts | 278° |
| 2026-04-15 15:34 | 49.49824 | 11.06310 | 1020 ft | 23 kts | 278° |
| 2026-04-15 15:34 | 49.49848 | 11.06063 | 1021 ft | 21 kts | 279° |
| 2026-04-15 15:34 | 49.49931 | 11.05955 | 1021 ft | 15 kts | 340° |
| 2026-04-15 15:35 | 49.49943 | 11.05948 | 1020 ft | 0 kts | 340° |
| 2026-04-15 15:35 | 49.49944 | 11.05948 | 1020 ft | 1 kts | 340° |
| 2026-04-15 15:35 | 49.50010 | 11.05930 | 1018 ft | 22 kts | 358° |
| 2026-04-15 15:35 | 49.50042 | 11.06057 | 1020 ft | 19 kts | 98° |
| 2026-04-15 15:36 | 49.49984 | 11.06648 | 1020 ft | 92 kts | 98° |
| 2026-04-15 15:36 | 49.49858 | 11.07929 | 1035 ft | 147 kts | 98° |
| 2026-04-15 15:36 | 49.49690 | 11.09607 | 1454 ft | 160 kts | 100° |
| 2026-04-15 15:36 | 49.49521 | 11.11280 | 2205 ft | 159 kts | 99° |
| 2026-04-15 15:37 | 49.49349 | 11.13019 | 2631 ft | 174 kts | 99° |
| 2026-04-15 15:37 | 49.49156 | 11.14982 | 2919 ft | 196 kts | 99° |
| 2026-04-15 15:37 | 49.48940 | 11.17160 | 3191 ft | 216 kts | 99° |
| 2026-04-15 15:37 | 49.48703 | 11.19567 | 3539 ft | 240 kts | 99° |
| 2026-04-15 15:38 | 49.48409 | 11.22203 | 4073 ft | 257 kts | 107° |
| 2026-04-15 15:38 | 49.47448 | 11.24507 | 4875 ft | 262 kts | 141° |
| 2026-04-15 15:38 | 49.45775 | 11.25571 | 5738 ft | 265 kts | 172° |
| 2026-04-15 15:38 | 49.43916 | 11.25565 | 6629 ft | 269 kts | 190° |
| 2026-04-15 15:39 | 49.42169 | 11.24533 | 7477 ft | 274 kts | 213° |
| 2026-04-15 15:39 | 49.40835 | 11.22434 | 8271 ft | 280 kts | 239° |
| 2026-04-15 15:39 | 49.40241 | 11.19588 | 9116 ft | 284 kts | 266° |
| 2026-04-15 15:39 | 49.40528 | 11.16602 | 9989 ft | 286 kts | 289° |
| 2026-04-15 15:40 | 49.41204 | 11.13692 | 10617 ft | 298 kts | 290° |
| 2026-04-15 15:40 | 49.41939 | 11.10583 | 10871 ft | 321 kts | 290° |
| 2026-04-15 15:40 | 49.42728 | 11.07246 | 11067 ft | 344 kts | 290° |
| 2026-04-15 15:40 | 49.43567 | 11.03687 | 11326 ft | 362 kts | 289° |
| 2026-04-15 15:41 | 49.44426 | 11.00007 | 11934 ft | 368 kts | 289° |
| 2026-04-15 15:41 | 49.45285 | 10.96278 | 12634 ft | 372 kts | 289° |
| 2026-04-15 15:41 | 49.46151 | 10.92500 | 13081 ft | 376 kts | 289° |
| 2026-04-15 15:41 | 49.47022 | 10.88705 | 13200 ft | 376 kts | 289° |
| 2026-04-15 15:42 | 49.47893 | 10.84917 | 13222 ft | 376 kts | 289° |
| 2026-04-15 15:42 | 49.48760 | 10.81126 | 13293 ft | 379 kts | 289° |
| 2026-04-15 15:42 | 49.49635 | 10.77283 | 14022 ft | 380 kts | 289° |
| 2026-04-15 15:42 | 49.50512 | 10.73429 | 14669 ft | 383 kts | 289° |
| 2026-04-15 15:43 | 49.51398 | 10.69547 | 15263 ft | 386 kts | 289° |
| 2026-04-15 15:43 | 49.52280 | 10.65672 | 15847 ft | 390 kts | 289° |
| 2026-04-15 15:43 | 49.53177 | 10.61719 | 16418 ft | 393 kts | 289° |
| 2026-04-15 15:43 | 49.54081 | 10.57732 | 16974 ft | 396 kts | 288° |
| 2026-04-15 15:44 | 49.55104 | 10.53783 | 17515 ft | 400 kts | 296° |
| 2026-04-15 15:44 | 49.56550 | 10.50104 | 18060 ft | 404 kts | 304° |
| 2026-04-15 15:44 | 49.58198 | 10.46574 | 18591 ft | 407 kts | 304° |
| 2026-04-15 15:44 | 49.59855 | 10.43025 | 19068 ft | 409 kts | 304° |
| 2026-04-15 15:45 | 49.61523 | 10.39440 | 19558 ft | 412 kts | 304° |
| 2026-04-15 15:45 | 49.63190 | 10.35838 | 20083 ft | 413 kts | 304° |
| 2026-04-15 15:45 | 49.64859 | 10.32229 | 20595 ft | 414 kts | 304° |
| 2026-04-15 15:45 | 49.66535 | 10.28602 | 21047 ft | 416 kts | 304° |
| 2026-04-15 15:46 | 49.68218 | 10.24956 | 21197 ft | 416 kts | 304° |
| 2026-04-15 15:46 | 49.69908 | 10.21288 | 20329 ft | 423 kts | 304° |
| 2026-04-15 15:46 | 49.71542 | 10.17456 | 19239 ft | 429 kts | 296° |
| 2026-04-15 15:46 | 49.72571 | 10.13153 | 18444 ft | 427 kts | 285° |
| 2026-04-15 15:47 | 49.73383 | 10.08736 | 17651 ft | 424 kts | 284° |
| 2026-04-15 15:47 | 49.74059 | 10.04398 | 17476 ft | 406 kts | 282° |
| 2026-04-15 15:47 | 49.74633 | 10.00256 | 17299 ft | 391 kts | 281° |
| 2026-04-15 15:47 | 49.75220 | 9.96157 | 16558 ft | 391 kts | 282° |
| 2026-04-15 15:48 | 49.75865 | 9.92082 | 15926 ft | 389 kts | 284° |
| 2026-04-15 15:48 | 49.76563 | 9.88055 | 15339 ft | 387 kts | 285° |
| 2026-04-15 15:48 | 49.77293 | 9.84056 | 14758 ft | 384 kts | 285° |
| 2026-04-15 15:48 | 49.78033 | 9.80099 | 14203 ft | 382 kts | 285° |
| 2026-04-15 15:49 | 49.78771 | 9.76177 | 13622 ft | 378 kts | 285° |
| 2026-04-15 15:49 | 49.79501 | 9.72279 | 13026 ft | 375 kts | 285° |
| 2026-04-15 15:49 | 49.80214 | 9.68413 | 12430 ft | 372 kts | 285° |
| 2026-04-15 15:49 | 49.80911 | 9.64567 | 11836 ft | 369 kts | 285° |
| 2026-04-15 15:50 | 49.81597 | 9.60747 | 11329 ft | 365 kts | 284° |
| 2026-04-15 15:50 | 49.82261 | 9.57041 | 11182 ft | 349 kts | 284° |
| 2026-04-15 15:50 | 49.82884 | 9.53565 | 11194 ft | 330 kts | 284° |
| 2026-04-15 15:50 | 49.83483 | 9.50221 | 11169 ft | 314 kts | 284° |
| 2026-04-15 15:51 | 49.84048 | 9.47071 | 11007 ft | 293 kts | 284° |
| 2026-04-15 15:51 | 49.84583 | 9.44084 | 10556 ft | 284 kts | 284° |
| 2026-04-15 15:51 | 49.85105 | 9.41154 | 9984 ft | 280 kts | 284° |
| 2026-04-15 15:51 | 49.85624 | 9.38233 | 9515 ft | 281 kts | 284° |
| 2026-04-15 15:52 | 49.86140 | 9.35324 | 9158 ft | 279 kts | 284° |
| 2026-04-15 15:52 | 49.86770 | 9.32495 | 8773 ft | 279 kts | 298° |
| 2026-04-15 15:52 | 49.88070 | 9.30302 | 8405 ft | 280 kts | 326° |
| 2026-04-15 15:52 | 49.89786 | 9.28884 | 8003 ft | 280 kts | 333° |
| 2026-04-15 15:53 | 49.91553 | 9.27610 | 7591 ft | 280 kts | 334° |
| 2026-04-15 15:53 | 49.93290 | 9.26368 | 7463 ft | 269 kts | 334° |
| 2026-04-15 15:53 | 49.94956 | 9.25178 | 7335 ft | 258 kts | 334° |
| 2026-04-15 15:53 | 49.96556 | 9.24033 | 7209 ft | 249 kts | 334° |
| 2026-04-15 15:54 | 49.98116 | 9.22917 | 6981 ft | 246 kts | 334° |
| 2026-04-15 15:54 | 49.99643 | 9.21824 | 6711 ft | 245 kts | 334° |
| 2026-04-15 15:54 | 50.01206 | 9.20702 | 6513 ft | 245 kts | 334° |
| 2026-04-15 15:54 | 50.02752 | 9.19589 | 6333 ft | 244 kts | 334° |
| 2026-04-15 15:55 | 50.04274 | 9.18487 | 6148 ft | 244 kts | 334° |
| 2026-04-15 15:55 | 50.05809 | 9.17374 | 5955 ft | 243 kts | 334° |
| 2026-04-15 15:55 | 50.07338 | 9.16257 | 5742 ft | 242 kts | 333° |
| 2026-04-15 15:55 | 50.08647 | 9.14676 | 5543 ft | 238 kts | 303° |
| 2026-04-15 15:56 | 50.09333 | 9.12355 | 5340 ft | 237 kts | 287° |
| 2026-04-15 15:56 | 50.09799 | 9.09900 | 5177 ft | 236 kts | 284° |
| 2026-04-15 15:56 | 50.10239 | 9.07436 | 5049 ft | 236 kts | 284° |
| 2026-04-15 15:56 | 50.10671 | 9.04962 | 4920 ft | 236 kts | 284° |
| 2026-04-15 15:57 | 50.11098 | 9.02491 | 4789 ft | 236 kts | 284° |
| 2026-04-15 15:57 | 50.11526 | 9.00023 | 4694 ft | 236 kts | 284° |
| 2026-04-15 15:57 | 50.11953 | 8.97582 | 4628 ft | 236 kts | 284° |
| 2026-04-15 15:57 | 50.12301 | 8.95093 | 4547 ft | 234 kts | 271° |
| 2026-04-15 15:58 | 50.12038 | 8.92621 | 4469 ft | 232 kts | 249° |
| 2026-04-15 15:58 | 50.11483 | 8.90265 | 4388 ft | 232 kts | 248° |
| 2026-04-15 15:58 | 50.10918 | 8.87885 | 4250 ft | 239 kts | 248° |
| 2026-04-15 15:58 | 50.10344 | 8.85448 | 3954 ft | 238 kts | 248° |
| 2026-04-15 15:59 | 50.09776 | 8.83031 | 3639 ft | 237 kts | 249° |
| 2026-04-15 15:59 | 50.09212 | 8.80636 | 3317 ft | 233 kts | 248° |
| 2026-04-15 15:59 | 50.08662 | 8.78307 | 3008 ft | 225 kts | 249° |
| 2026-04-15 15:59 | 50.08131 | 8.76058 | 2710 ft | 218 kts | 249° |
| 2026-04-15 16:00 | 50.07626 | 8.73919 | 2416 ft | 204 kts | 248° |
| 2026-04-15 16:00 | 50.07112 | 8.71723 | 2035 ft | 228 kts | 250° |
| 2026-04-15 16:00 | 50.06740 | 8.69431 | 1678 ft | 208 kts | 259° |
| 2026-04-15 16:00 | 50.06524 | 8.67302 | 1440 ft | 189 kts | 257° |
| 2026-04-15 16:01 | 50.06183 | 8.65460 | 1322 ft | 167 kts | 240° |
| 2026-04-15 16:01 | 50.05654 | 8.63959 | 1184 ft | 155 kts | 248° |
| 2026-04-15 16:01 | 50.05368 | 8.62362 | 891 ft | 151 kts | 255° |
| 2026-04-15 16:01 | 50.05028 | 8.60848 | 654 ft | 146 kts | 249° |
| 2026-04-15 16:02 | 50.04682 | 8.59401 | 478 ft | 142 kts | 250° |
| 2026-04-15 16:02 | 50.04345 | 8.57983 | 361 ft | 132 kts | 249° |
| 2026-04-15 16:02 | 50.04079 | 8.56883 | 361 ft | 84 kts | 250° |
| 2026-04-15 16:02 | 50.03929 | 8.56249 | 355 ft | 51 kts | 250° |
| 2026-04-15 16:03 | 50.03878 | 8.55908 | 350 ft | 28 kts | 278° |
| 2026-04-15 16:03 | 50.03903 | 8.55702 | 352 ft | 0 kts | 278° |
| 2026-04-15 16:04 | 50.03903 | 8.55701 | 352 ft | 1 kts | 278° |
| 2026-04-15 16:04 | 50.03914 | 8.55584 | 353 ft | 17 kts | 278° |
| 2026-04-15 16:04 | 50.03986 | 8.55458 | 356 ft | 17 kts | 341° |
| 2026-04-15 16:05 | 50.04089 | 8.55365 | 355 ft | 18 kts | 290° |
| 2026-04-15 16:05 | 50.04057 | 8.55177 | 356 ft | 19 kts | 249° |
| 2026-04-15 16:05 | 50.04004 | 8.54954 | 357 ft | 24 kts | 250° |
| 2026-04-15 16:05 | 50.03942 | 8.54695 | 355 ft | 26 kts | 250° |
| 2026-04-15 16:06 | 50.03877 | 8.54420 | 358 ft | 28 kts | 249° |
| 2026-04-15 16:06 | 50.03783 | 8.54155 | 357 ft | 29 kts | 251° |
| 2026-04-15 16:06 | 50.03714 | 8.53857 | 357 ft | 30 kts | 249° |
| 2026-04-15 16:06 | 50.03665 | 8.53609 | 358 ft | 19 kts | 284° |
| 2026-04-15 16:07 | 50.03697 | 8.53442 | 355 ft | 17 kts | 253° |
| 2026-04-15 16:07 | 50.03642 | 8.53209 | 357 ft | 26 kts | 249° |
| 2026-04-15 16:07 | 50.03643 | 8.52833 | 357 ft | 22 kts | 328° |
| 2026-04-15 16:08 | 50.03738 | 8.52774 | 357 ft | 7 kts | 339° |
| 2026-04-15 16:08 | 50.03743 | 8.52771 | 356 ft | 0 kts | 339° |